Terminal Aerodrome Forecast
Issued by NWS Wilmington, OH

Home | Current Version | Previous Version | Text Only | Print | Product List | Glossary On
Versions: 1 2 3 4 5 6 7 8 9 10 11 12 13 14
000
FTUS41 KILN 221700
TAFCMH
TAF
KCMH 221738Z 2218/2318 12006KT P6SM SCT050 BKN250
     FM222100 12007KT P6SM SCT040 BKN150
      TEMPO 2305/2307 -SHRA SCT015 OVC040
     FM230700 12008KT P6SM VCSH SCT012 OVC020
      TEMPO 2309/2311 5SM -SHRA BR OVC012
     FM231100 15009KT P6SM VCSH SCT012 OVC020
      TEMPO 2311/2315 OVC012=

USA.gov is the U.S. government's official web portal to all federal, state and local government web resources and services.